Time;durP1;ratioP1;P1;durP2;ratioP2;P2;SDS_P1;SDS_P2;PMS_P1;PMS_P2;Temp;Humidity;BMP_temperature;BMP_pressure;BME280_temperature;BME280_humidity;BME280_pressure;Samples;Min_cycle;Max_cycle;Signal;HPM_P1;HPM_P2
2023/03/05 00:00:10;;;;;;;11.40;1.95;;;4.50;99.90;;;;;;5128001;27;20092;-63
2023/03/05 00:02:36;;;;;;;7.20;2.33;;;4.60;99.90;;;;;;5141550;27;20531;-63
2023/03/05 00:05:01;;;;;;;8.15;1.90;;;4.60;99.90;;;;;;5121395;27;20216;-63
2023/03/05 00:07:27;;;;;;;6.53;1.95;;;4.60;99.90;;;;;;5125124;27;20088;-63
2023/03/05 00:09:52;;;;;;;6.78;2.22;;;4.60;99.90;;;;;;5117375;27;20515;-63
2023/03/05 00:12:18;;;;;;;5.68;2.10;;;4.60;99.90;;;;;;5126261;27;20042;-63
2023/03/05 00:14:44;;;;;;;9.20;1.92;;;4.60;99.90;;;;;;5130075;27;20039;-63
2023/03/05 00:17:09;;;;;;;8.55;2.10;;;4.50;99.90;;;;;;5127206;27;20042;-63
2023/03/05 00:19:35;;;;;;;9.63;2.33;;;4.50;99.90;;;;;;5124137;27;20039;-62
2023/03/05 00:22:00;;;;;;;8.98;1.83;;;4.50;99.90;;;;;;5135495;27;20031;-62
2023/03/05 00:24:26;;;;;;;5.88;2.00;;;4.40;99.90;;;;;;5140409;27;20032;-62
2023/03/05 00:26:52;;;;;;;6.72;1.75;;;4.30;99.90;;;;;;5120498;27;20051;-62
2023/03/05 00:29:23;;;;;;;9.38;2.38;;;4.30;99.90;;;;;;5120597;27;20034;-62
2023/03/05 00:31:49;;;;;;;6.35;2.00;;;4.30;99.90;;;;;;5129396;27;20080;-61
2023/03/05 00:34:17;;;;;;;12.05;2.35;;;4.20;99.90;;;;;;5136850;27;20477;-63
2023/03/05 00:36:48;;;;;;;10.50;2.33;;;4.20;99.90;;;;;;5143942;27;20027;-62
2023/03/05 00:39:14;;;;;;;8.57;2.03;;;4.20;99.90;;;;;;5122927;27;20039;-62
2023/03/05 00:41:40;;;;;;;14.38;2.42;;;4.20;99.90;;;;;;5143076;27;20068;-62
2023/03/05 00:44:06;;;;;;;14.93;3.03;;;4.20;99.90;;;;;;5133848;27;20031;-62
2023/03/05 00:46:32;;;;;;;7.60;2.58;;;4.20;99.90;;;;;;5134073;27;20042;-63
2023/03/05 00:48:58;;;;;;;10.20;2.50;;;4.20;99.90;;;;;;5128283;27;20114;-63
2023/03/05 00:51:24;;;;;;;9.43;2.53;;;4.20;99.90;;;;;;5143625;27;20034;-62
2023/03/05 00:53:50;;;;;;;9.57;1.98;;;4.20;99.90;;;;;;5129626;27;20496;-62
2023/03/05 00:56:16;;;;;;;9.40;2.20;;;4.20;99.90;;;;;;5147523;27;20038;-63
2023/03/05 00:58:42;;;;;;;8.88;2.22;;;4.20;99.90;;;;;;5120217;27;20038;-62
2023/03/05 01:01:08;;;;;;;7.93;2.00;;;4.30;99.90;;;;;;5142809;27;20069;-62
2023/03/05 01:03:35;;;;;;;8.10;1.85;;;4.20;99.90;;;;;;5135218;27;20038;-62
2023/03/05 01:06:04;;;;;;;8.30;1.88;;;4.30;99.90;;;;;;5128565;27;20091;-63
2023/03/05 01:08:29;;;;;;;7.57;1.90;;;4.20;99.90;;;;;;5141752;27;20046;-61
2023/03/05 01:10:55;;;;;;;10.85;2.03;;;4.20;99.90;;;;;;5130932;27;20031;-61
2023/03/05 01:13:21;;;;;;;7.05;1.70;;;4.20;99.90;;;;;;5125106;27;20469;-62
2023/03/05 01:15:49;;;;;;;8.52;2.10;;;4.20;99.90;;;;;;5135527;27;20039;-63
2023/03/05 01:18:16;;;;;;;6.95;1.90;;;4.10;99.90;;;;;;5129376;27;20389;-62
2023/03/05 01:20:42;;;;;;;7.90;2.15;;;4.10;99.90;;;;;;5134445;27;20042;-63
2023/03/05 01:23:08;;;;;;;9.38;1.90;;;4.10;99.90;;;;;;5136549;27;20042;-62
2023/03/05 01:25:34;;;;;;;11.45;2.45;;;4.00;99.90;;;;;;5128340;27;20042;-63
2023/03/05 01:27:59;;;;;;;6.60;1.77;;;4.00;99.90;;;;;;5126926;27;20031;-62
2023/03/05 01:30:25;;;;;;;9.77;2.30;;;4.00;99.90;;;;;;5140398;27;20030;-62
2023/03/05 01:32:51;;;;;;;5.40;1.85;;;4.00;99.90;;;;;;5140698;27;20484;-62
2023/03/05 01:35:20;;;;;;;11.13;2.10;;;4.00;99.90;;;;;;5125838;27;20683;-62
2023/03/05 01:37:46;;;;;;;7.28;1.80;;;4.00;99.90;;;;;;5125555;27;20047;-62
2023/03/05 01:40:16;;;;;;;8.45;1.80;;;4.10;99.90;;;;;;5130925;27;20041;-62
2023/03/05 01:42:47;;;;;;;6.53;1.98;;;4.10;99.90;;;;;;5137089;27;20035;-62
2023/03/05 01:45:17;;;;;;;7.68;1.90;;;4.10;99.90;;;;;;5126358;27;20362;-62
2023/03/05 01:47:43;;;;;;;9.68;2.30;;;4.10;99.90;;;;;;5136079;27;20043;-62
2023/03/05 01:50:16;;;;;;;10.27;2.40;;;4.00;99.90;;;;;;5134389;27;20038;-62
2023/03/05 01:52:44;;;;;;;;;;;4.00;99.90;;;;;;5141516;27;20039;-62
2023/03/05 01:55:15;;;;;;;9.73;1.77;;;4.00;99.90;;;;;;5119997;27;19922;-62
2023/03/05 01:57:50;;;;;;;8.38;1.80;;;4.00;99.90;;;;;;5121501;27;20028;-62
2023/03/05 02:00:21;;;;;;;7.93;1.90;;;4.00;99.90;;;;;;5125267;27;20047;-62
2023/03/05 02:02:49;;;;;;;7.90;1.85;;;4.00;99.90;;;;;;5124857;27;20114;-63
2023/03/05 02:05:25;;;;;;;8.75;2.25;;;4.00;99.90;;;;;;5132611;27;20039;-62
2023/03/05 02:07:54;;;;;;;6.95;1.98;;;4.00;99.90;;;;;;5140511;27;20039;-62
2023/03/05 02:10:29;;;;;;;6.30;1.75;;;4.00;99.90;;;;;;5121096;27;20027;-62
2023/03/05 02:12:59;;;;;;;9.95;1.90;;;4.00;99.90;;;;;;5133708;27;20039;-62
2023/03/05 02:15:24;;;;;;;5.95;1.55;;;4.00;99.90;;;;;;5121577;27;20034;-62
2023/03/05 02:17:50;;;;;;;9.98;1.95;;;3.90;99.90;;;;;;5125371;27;20477;-62
2023/03/05 02:20:20;;;;;;;7.63;2.00;;;3.90;99.90;;;;;;5124223;27;20062;-62
2023/03/05 02:22:46;;;;;;;4.43;1.52;;;3.90;99.90;;;;;;5123364;27;20053;-61
2023/03/05 02:25:30;;;;;;;8.75;1.80;;;3.90;99.90;;;;;;5125308;27;20039;-62
2023/03/05 02:28:08;;;;;;;5.45;1.50;;;2.80;99.90;;;;;;5124614;27;20108;-62
2023/03/05 02:30:34;;;;;;;8.88;1.60;;;3.90;99.90;;;;;;5120201;27;20261;-62
2023/03/05 02:33:01;;;;;;;6.32;1.60;;;3.90;99.90;;;;;;5127889;27;20049;-62
2023/03/05 02:35:26;;;;;;;5.70;1.52;;;3.90;99.90;;;;;;5123160;27;20052;-62
2023/03/05 02:37:52;;;;;;;8.30;1.60;;;3.90;99.90;;;;;;5132944;27;20043;-62
2023/03/05 02:40:18;;;;;;;9.55;1.70;;;3.90;99.90;;;;;;5129516;27;20051;-62
2023/03/05 02:42:45;;;;;;;6.68;1.50;;;4.00;99.90;;;;;;5133778;27;20117;-62
2023/03/05 02:45:12;;;;;;;5.95;1.05;;;3.90;99.90;;;;;;5141818;27;20066;-62
2023/03/05 02:47:37;;;;;;;7.85;1.50;;;3.90;99.90;;;;;;5135972;27;20055;-62
2023/03/05 02:50:05;;;;;;;8.02;1.50;;;4.00;99.90;;;;;;5121607;27;20473;-62
2023/03/05 02:52:30;;;;;;;4.43;1.30;;;4.00;99.90;;;;;;5127098;27;20051;-62
2023/03/05 02:54:56;;;;;;;5.82;1.50;;;4.00;99.90;;;;;;5139868;27;20087;-62
2023/03/05 02:57:25;;;;;;;7.82;1.30;;;4.00;99.90;;;;;;5130254;27;20059;-62
2023/03/05 02:59:50;;;;;;;6.60;1.50;;;4.00;99.90;;;;;;5130078;27;20035;-62
2023/03/05 03:02:16;;;;;;;4.28;1.38;;;4.00;99.90;;;;;;5143265;27;20122;-62
2023/03/05 03:04:45;;;;;;;6.90;1.40;;;4.00;99.90;;;;;;5132598;27;20035;-62
2023/03/05 03:07:12;;;;;;;6.45;1.50;;;4.10;99.90;;;;;;5131717;27;20066;-62
2023/03/05 03:09:38;;;;;;;5.13;1.10;;;4.10;99.90;;;;;;5131104;27;20094;-62
2023/03/05 03:12:05;;;;;;;8.55;1.50;;;4.00;99.90;;;;;;5131330;27;20043;-62
2023/03/05 03:14:36;;;;;;;9.70;1.20;;;4.00;99.90;;;;;;5116280;27;20039;-62
2023/03/05 03:17:02;;;;;;;3.90;1.15;;;4.00;99.90;;;;;;5126419;27;20397;-63
2023/03/05 03:19:27;;;;;;;9.02;1.33;;;4.10;99.90;;;;;;5135653;27;20035;-62
2023/03/05 03:21:53;;;;;;;5.72;1.52;;;4.10;99.90;;;;;;5127671;27;20263;-62
2023/03/05 03:24:19;;;;;;;5.95;1.20;;;4.10;99.90;;;;;;5122303;27;20103;-62
2023/03/05 03:26:45;;;;;;;6.63;1.40;;;4.10;99.90;;;;;;5130935;27;20063;-63
2023/03/05 03:29:10;;;;;;;7.47;1.25;;;4.10;99.90;;;;;;5128064;27;20457;-63
2023/03/05 03:31:38;;;;;;;4.38;1.38;;;4.00;99.90;;;;;;5127921;27;20050;-62
2023/03/05 03:34:04;;;;;;;6.97;1.25;;;4.10;99.90;;;;;;5123660;27;20043;-62
2023/03/05 03:36:31;;;;;;;7.25;1.30;;;4.10;99.90;;;;;;5129169;27;20031;-63
2023/03/05 03:38:56;;;;;;;8.75;1.50;;;4.10;99.90;;;;;;5123280;27;20043;-62
2023/03/05 03:41:22;;;;;;;9.23;1.25;;;4.10;99.90;;;;;;5126682;27;20138;-62
2023/03/05 03:43:47;;;;;;;4.95;1.30;;;4.10;99.90;;;;;;5147784;27;20038;-62
2023/03/05 03:46:13;;;;;;;4.93;1.30;;;4.10;99.90;;;;;;5134986;27;20038;-62
2023/03/05 03:48:39;;;;;;;6.68;1.27;;;4.10;99.90;;;;;;5131973;27;20053;-62
2023/03/05 03:51:06;;;;;;;3.65;1.20;;;4.10;99.90;;;;;;5133995;27;20035;-62
2023/03/05 03:53:31;;;;;;;3.47;1.38;;;4.10;99.90;;;;;;5123638;27;20035;-62
2023/03/05 03:55:58;;;;;;;6.00;1.30;;;4.10;99.90;;;;;;5136438;27;20027;-62
2023/03/05 03:58:24;;;;;;;6.45;1.20;;;4.10;99.90;;;;;;5123429;27;20071;-63
2023/03/05 04:00:49;;;;;;;10.15;1.20;;;4.10;99.90;;;;;;5132040;27;20079;-63
2023/03/05 04:03:15;;;;;;;5.03;1.45;;;4.10;99.90;;;;;;5126888;27;20039;-63
2023/03/05 04:05:40;;;;;;;6.75;1.48;;;4.10;99.90;;;;;;5146086;27;20039;-62
2023/03/05 04:08:10;;;;;;;5.82;1.10;;;4.00;99.90;;;;;;5138194;27;20032;-62
2023/03/05 04:10:38;;;;;;;5.30;1.52;;;4.00;99.90;;;;;;5148836;27;20049;-62
2023/03/05 04:13:04;;;;;;;6.47;1.30;;;3.90;99.90;;;;;;5135676;27;20035;-62
2023/03/05 04:15:31;;;;;;;3.25;0.98;;;3.90;99.90;;;;;;5153923;27;20039;-62
2023/03/05 04:17:57;;;;;;;6.25;1.27;;;3.80;99.90;;;;;;5136804;27;20119;-62
2023/03/05 04:20:22;;;;;;;3.60;0.90;;;3.80;99.90;;;;;;5127558;27;20176;-62
2023/03/05 04:22:48;;;;;;;4.78;1.10;;;3.80;99.90;;;;;;5125177;27;20042;-62
2023/03/05 04:25:14;;;;;;;2.60;1.10;;;3.80;99.90;;;;;;5145246;27;20059;-62
2023/03/05 04:27:39;;;;;;;1.80;1.13;;;3.70;99.90;;;;;;5132094;27;20035;-62
2023/03/05 04:30:07;;;;;;;3.63;1.42;;;4.30;99.90;;;;;;5129331;27;20381;-62
2023/03/05 04:32:33;;;;;;;4.13;1.10;;;3.70;99.90;;;;;;5128617;27;20466;-62
2023/03/05 04:34:58;;;;;;;2.25;1.05;;;3.80;99.90;;;;;;5147082;27;20066;-62
2023/03/05 04:37:24;;;;;;;2.45;1.08;;;3.80;99.90;;;;;;5138826;27;20034;-63
2023/03/05 04:39:51;;;;;;;3.85;1.10;;;3.80;99.90;;;;;;5130742;27;20042;-63
2023/03/05 04:42:18;;;;;;;4.70;1.23;;;3.80;99.90;;;;;;5140745;27;20039;-63
2023/03/05 04:44:43;;;;;;;4.32;1.17;;;3.80;99.90;;;;;;5121076;27;20040;-62
2023/03/05 04:47:09;;;;;;;4.45;1.23;;;3.80;99.90;;;;;;5140867;27;20034;-62
2023/03/05 04:49:34;;;;;;;4.82;1.20;;;3.70;99.90;;;;;;5136808;27;20031;-62
2023/03/05 04:52:00;;;;;;;6.32;1.23;;;3.70;99.90;;;;;;5121882;27;20114;-63
2023/03/05 04:54:27;;;;;;;3.67;1.40;;;3.70;99.90;;;;;;5136453;27;20435;-62
2023/03/05 04:56:52;;;;;;;5.57;1.23;;;3.70;99.90;;;;;;5129216;27;20050;-62
2023/03/05 04:59:18;;;;;;;8.35;1.50;;;3.70;99.90;;;;;;5123523;27;20730;-62
2023/03/05 05:01:46;;;;;;;4.15;1.35;;;4.40;99.90;;;;;;5133591;27;20031;-62
2023/03/05 05:04:12;;;;;;;4.22;1.13;;;3.70;99.90;;;;;;5133134;27;20087;-62
2023/03/05 05:06:38;;;;;;;4.03;1.40;;;3.70;99.90;;;;;;5125997;27;20114;-62
2023/03/05 05:09:03;;;;;;;6.18;1.50;;;3.70;99.90;;;;;;5124547;27;20036;-62
2023/03/05 05:11:29;;;;;;;5.22;1.50;;;3.70;99.90;;;;;;5124932;27;20463;-62
2023/03/05 05:13:54;;;;;;;2.63;1.23;;;3.70;99.90;;;;;;5130730;27;20401;-61
2023/03/05 05:16:20;;;;;;;6.72;1.30;;;3.70;99.90;;;;;;5134847;27;20503;-62
2023/03/05 05:18:46;;;;;;;3.35;1.40;;;3.70;99.90;;;;;;5119121;27;20042;-61
2023/03/05 05:21:13;;;;;;;2.85;1.25;;;3.70;99.90;;;;;;5126054;27;20031;-61
2023/03/05 05:23:39;;;;;;;3.53;1.30;;;3.70;99.90;;;;;;5130090;27;20035;-61
2023/03/05 05:26:06;;;;;;;5.28;1.50;;;3.70;99.90;;;;;;5143218;27;20031;-62
2023/03/05 05:28:33;;;;;;;3.58;1.50;;;3.70;99.90;;;;;;5132270;27;20066;-62
2023/03/05 05:30:59;;;;;;;8.27;1.50;;;3.70;99.90;;;;;;5132598;27;20045;-62
2023/03/05 05:33:25;;;;;;;5.95;1.40;;;3.70;99.90;;;;;;5127506;27;20034;-61
2023/03/05 05:35:51;;;;;;;5.47;1.40;;;3.70;99.90;;;;;;5134991;27;20043;-61
2023/03/05 05:38:17;;;;;;;3.22;1.35;;;3.70;99.90;;;;;;5126287;27;20945;-62
2023/03/05 05:40:43;;;;;;;6.25;1.85;;;3.70;99.90;;;;;;5126507;27;20487;-62
2023/03/05 05:43:09;;;;;;;8.63;1.52;;;3.70;99.90;;;;;;5135861;27;20126;-62
2023/03/05 05:45:37;;;;;;;4.88;1.65;;;3.70;99.90;;;;;;5132545;27;20058;-62
2023/03/05 05:48:03;;;;;;;4.45;1.27;;;3.70;99.90;;;;;;5125100;27;20038;-62
2023/03/05 05:50:29;;;;;;;3.83;1.33;;;3.70;99.90;;;;;;5124835;27;20118;-62
2023/03/05 05:52:54;;;;;;;8.15;1.45;;;3.70;99.90;;;;;;5134339;27;20032;-62
2023/03/05 05:55:20;;;;;;;2.58;1.20;;;3.70;99.90;;;;;;5123255;27;20035;-63
2023/03/05 05:57:46;;;;;;;5.07;1.50;;;3.70;99.90;;;;;;5132728;27;20066;-61
2023/03/05 06:00:13;;;;;;;5.85;1.55;;;3.70;99.90;;;;;;5127646;27;20110;-61
2023/03/05 06:02:40;;;;;;;6.47;1.45;;;3.70;99.90;;;;;;5120480;27;20043;-62
2023/03/05 06:05:06;;;;;;;5.88;1.90;;;3.70;99.90;;;;;;5128532;27;20035;-62
2023/03/05 06:07:33;;;;;;;8.23;1.90;;;3.70;99.90;;;;;;5135450;27;20100;-62
2023/03/05 06:09:59;;;;;;;5.97;1.10;;;3.70;99.90;;;;;;5138078;27;20039;-62
2023/03/05 06:12:25;;;;;;;5.38;1.48;;;3.70;99.90;;;;;;5133154;27;20050;-62
2023/03/05 06:14:50;;;;;;;4.47;1.60;;;3.70;99.90;;;;;;5125168;27;20036;-62
2023/03/05 06:17:16;;;;;;;3.65;1.40;;;3.70;99.90;;;;;;5145757;27;20026;-62
2023/03/05 06:19:42;;;;;;;3.22;1.48;;;3.70;99.90;;;;;;5129805;27;20141;-62
2023/03/05 06:22:08;;;;;;;3.78;1.30;;;3.70;99.90;;;;;;5132999;27;20110;-61
2023/03/05 06:24:33;;;;;;;4.15;1.33;;;3.70;99.90;;;;;;5135504;27;20548;-62
2023/03/05 06:26:59;;;;;;;4.55;1.42;;;3.70;99.90;;;;;;5127033;27;20035;-62
2023/03/05 06:29:24;;;;;;;4.88;1.67;;;3.70;99.90;;;;;;5123200;27;20065;-62
2023/03/05 06:31:50;;;;;;;4.88;1.40;;;3.70;99.90;;;;;;5134129;27;20122;-62
2023/03/05 06:34:16;;;;;;;3.85;1.25;;;3.70;99.90;;;;;;5140367;27;20057;-62
2023/03/05 06:36:42;;;;;;;3.47;1.20;;;3.70;99.90;;;;;;5123433;27;20089;-62
2023/03/05 06:39:08;;;;;;;4.32;1.50;;;3.70;99.90;;;;;;5133880;27;20134;-62
2023/03/05 06:41:34;;;;;;;5.05;1.50;;;3.70;99.90;;;;;;5122060;27;20035;-62
2023/03/05 06:44:03;;;;;;;5.85;1.65;;;3.80;99.90;;;;;;5130863;27;20046;-63
2023/03/05 06:46:36;;;;;;;5.70;1.40;;;3.80;99.90;;;;;;5120336;27;20031;-62
2023/03/05 06:49:02;;;;;;;3.22;1.20;;;3.80;99.90;;;;;;5114081;27;20394;-62
2023/03/05 06:51:31;;;;;;;4.57;1.30;;;3.80;99.90;;;;;;5113188;27;20050;-62
2023/03/05 06:54:10;;;;;;;3.92;1.40;;;3.90;99.90;;;;;;5111858;27;20041;-62
2023/03/05 06:56:37;;;;;;;3.72;1.33;;;3.80;99.90;;;;;;5119408;27;20085;-62
2023/03/05 06:59:03;;;;;;;7.20;1.40;;;3.80;99.90;;;;;;5119876;27;20142;-62
2023/03/05 07:01:29;;;;;;;5.38;1.35;;;3.90;99.90;;;;;;5118640;27;20035;-62
2023/03/05 07:03:57;;;;;;;5.63;1.42;;;3.90;99.90;;;;;;5114086;27;20038;-62
2023/03/05 07:06:23;;;;;;;3.35;1.30;;;3.90;99.90;;;;;;5114044;27;20521;-62
2023/03/05 07:08:49;;;;;;;4.25;1.40;;;3.90;99.90;;;;;;5117375;27;20478;-62
2023/03/05 07:11:19;;;;;;;6.28;1.85;;;3.90;99.90;;;;;;5118303;27;20393;-63
2023/03/05 07:13:48;;;;;;;4.68;1.77;;;4.10;99.90;;;;;;5127890;27;20201;-62
2023/03/05 07:16:20;;;;;;;4.28;1.35;;;4.00;99.90;;;;;;5115823;27;20039;-62
2023/03/05 07:18:46;;;;;;;7.25;1.55;;;4.00;99.90;;;;;;5119637;27;20035;-62
2023/03/05 07:21:17;;;;;;;5.75;1.58;;;4.00;99.90;;;;;;5117631;27;20345;-63
2023/03/05 07:23:43;;;;;;;3.92;1.23;;;4.00;99.90;;;;;;5129890;27;20031;-63
2023/03/05 07:26:10;;;;;;;5.75;1.52;;;4.00;99.90;;;;;;5135999;27;20057;-62
2023/03/05 07:28:35;;;;;;;2.90;1.27;;;4.00;99.90;;;;;;5129410;27;20430;-63
2023/03/05 07:31:04;;;;;;;8.60;1.30;;;4.10;99.90;;;;;;5126333;27;20031;-62
2023/03/05 07:33:29;;;;;;;4.68;1.40;;;4.00;99.90;;;;;;5135610;27;20031;-63
2023/03/05 07:35:55;;;;;;;4.93;1.48;;;4.10;99.90;;;;;;5127011;27;20162;-62
2023/03/05 07:38:21;;;;;;;8.02;1.33;;;4.10;99.90;;;;;;5120533;27;20030;-63
2023/03/05 07:40:47;;;;;;;5.88;1.40;;;4.10;99.90;;;;;;5113890;27;20035;-62
2023/03/05 07:43:14;;;;;;;5.15;1.30;;;4.10;99.90;;;;;;5120110;27;20119;-63
2023/03/05 07:45:41;;;;;;;5.57;1.38;;;4.10;99.90;;;;;;5121008;27;20035;-63
2023/03/05 07:48:11;;;;;;;4.63;1.45;;;4.10;99.90;;;;;;5117778;27;20137;-62
2023/03/05 07:50:36;;;;;;;4.82;1.27;;;4.10;99.90;;;;;;5118847;27;20046;-63
2023/03/05 07:53:02;;;;;;;4.25;1.48;;;4.10;99.90;;;;;;5117866;27;20039;-63
2023/03/05 07:55:28;;;;;;;4.60;1.50;;;4.10;99.90;;;;;;5122131;27;20027;-62
2023/03/05 07:57:53;;;;;;;4.90;1.20;;;4.10;99.90;;;;;;5128542;27;20589;-63
2023/03/05 08:00:19;;;;;;;4.20;1.40;;;4.10;99.90;;;;;;5129552;27;20039;-62
2023/03/05 08:02:45;;;;;;;6.20;1.55;;;4.10;99.90;;;;;;5121903;27;20039;-62
2023/03/05 08:05:11;;;;;;;8.35;1.50;;;4.10;99.90;;;;;;5121297;27;20106;-62
2023/03/05 08:07:37;;;;;;;5.90;1.50;;;4.10;99.90;;;;;;5118226;27;20517;-62
2023/03/05 08:10:03;;;;;;;3.67;1.30;;;4.10;99.90;;;;;;5118739;27;20031;-63
2023/03/05 08:12:29;;;;;;;6.70;1.23;;;4.10;99.90;;;;;;5127741;27;20042;-62
2023/03/05 08:14:55;;;;;;;4.53;1.48;;;4.10;99.90;;;;;;5124474;27;20031;-63
2023/03/05 08:17:20;;;;;;;5.85;1.45;;;4.10;99.90;;;;;;5124361;27;20446;-63
2023/03/05 08:19:46;;;;;;;6.82;1.35;;;4.20;99.90;;;;;;5117792;27;20505;-62
2023/03/05 08:22:14;;;;;;;6.60;1.48;;;4.20;99.90;;;;;;5123425;27;20389;-63
2023/03/05 08:24:41;;;;;;;4.65;1.40;;;4.30;99.90;;;;;;5112192;27;20032;-62
2023/03/05 08:27:07;;;;;;;5.93;1.45;;;4.30;99.90;;;;;;5117252;27;20542;-63
2023/03/05 08:29:32;;;;;;;5.85;1.50;;;4.30;99.90;;;;;;5113133;27;20058;-63
2023/03/05 08:31:58;;;;;;;6.70;1.90;;;4.30;99.90;;;;;;5123176;27;20497;-62
2023/03/05 08:34:24;;;;;;;7.10;1.70;;;4.30;99.90;;;;;;5127138;27;20067;-63
2023/03/05 08:36:50;;;;;;;3.65;1.52;;;4.40;99.90;;;;;;5110722;27;20044;-63
2023/03/05 08:39:16;;;;;;;4.93;1.30;;;4.40;99.90;;;;;;5118875;27;20458;-62
2023/03/05 08:41:41;;;;;;;7.93;1.88;;;4.40;99.90;;;;;;5117400;27;20062;-63
2023/03/05 08:44:07;;;;;;;7.72;1.48;;;4.40;99.90;;;;;;5121922;27;20498;-63
2023/03/05 08:46:33;;;;;;;10.23;1.60;;;4.50;99.90;;;;;;5120007;27;20046;-63
2023/03/05 08:48:59;;;;;;;6.65;1.30;;;4.50;99.90;;;;;;5117999;27;20040;-63
2023/03/05 08:51:25;;;;;;;5.15;1.30;;;4.50;99.90;;;;;;5130426;27;20031;-63
2023/03/05 08:53:53;;;;;;;6.25;1.30;;;4.60;99.90;;;;;;5119673;27;20043;-62
2023/03/05 08:56:20;;;;;;;4.82;1.30;;;4.70;99.90;;;;;;5130275;27;20034;-62
2023/03/05 08:58:47;;;;;;;5.53;1.58;;;4.70;99.90;;;;;;5132287;27;20028;-63
2023/03/05 09:01:13;;;;;;;7.40;1.52;;;4.70;99.90;;;;;;5137528;27;20085;-63
2023/03/05 09:03:39;;;;;;;5.05;1.10;;;4.80;99.90;;;;;;5124903;27;20504;-63
2023/03/05 09:06:08;;;;;;;7.82;1.15;;;4.90;99.90;;;;;;5126832;27;20070;-63
2023/03/05 09:08:34;;;;;;;5.68;1.30;;;4.90;99.90;;;;;;5134742;27;20074;-62
2023/03/05 09:11:05;;;;;;;4.72;1.25;;;5.00;99.90;;;;;;5124625;27;20042;-63
2023/03/05 09:13:31;;;;;;;9.52;1.25;;;5.00;99.90;;;;;;5121377;27;20066;-62
2023/03/05 09:16:00;;;;;;;5.20;1.25;;;5.00;99.90;;;;;;5138828;27;20036;-62
2023/03/05 09:18:27;;;;;;;7.57;1.40;;;5.10;99.90;;;;;;5127461;27;20122;-62
2023/03/05 09:20:54;;;;;;;3.72;1.08;;;5.10;99.90;;;;;;5129994;27;20063;-62
2023/03/05 09:23:20;;;;;;;8.02;1.20;;;5.10;99.90;;;;;;5132771;27;20027;-62
2023/03/05 09:25:46;;;;;;;6.15;1.45;;;5.10;99.90;;;;;;5116142;27;20042;-62
2023/03/05 09:28:12;;;;;;;5.35;1.20;;;5.20;99.90;;;;;;5114230;27;20043;-62
2023/03/05 09:30:38;;;;;;;3.58;1.10;;;5.20;99.90;;;;;;5126496;27;20115;-63
2023/03/05 09:33:04;;;;;;;6.30;1.23;;;5.30;99.90;;;;;;5119882;27;20035;-63
2023/03/05 09:35:34;;;;;;;6.00;1.33;;;5.30;99.90;;;;;;5129175;27;20058;-63
2023/03/05 09:38:00;;;;;;;6.50;1.08;;;5.40;99.90;;;;;;5142348;27;20040;-63
2023/03/05 09:40:50;;;;;;;4.20;1.25;;;5.40;99.90;;;;;;5129320;27;20378;-63
2023/03/05 09:43:15;;;;;;;5.63;1.30;;;5.50;99.90;;;;;;5123619;27;20050;-63
2023/03/05 09:45:56;;;;;;;6.80;1.70;;;5.50;99.90;;;;;;5143753;27;20035;-63
2023/03/05 09:48:47;;;;;;;15.15;1.77;;;5.50;99.90;;;;;;5126108;27;20066;-63
2023/03/05 09:51:24;;;;;;;6.03;1.50;;;5.60;99.90;;;;;;5127853;27;20119;-63
2023/03/05 09:53:58;;;;;;;6.68;1.40;;;5.60;99.90;;;;;;5129902;27;20080;-62
2023/03/05 09:56:34;;;;;;;4.00;1.58;;;5.70;99.90;;;;;;5124224;27;20046;-63
2023/03/05 09:59:22;;;;;;;5.22;1.30;;;5.70;99.90;;;;;;5127014;27;20050;-62
2023/03/05 10:01:50;;;;;;;7.00;1.50;;;5.70;99.90;;;;;;5132108;27;20062;-62
2023/03/05 10:04:28;;;;;;;7.60;1.40;;;5.70;99.90;;;;;;5132476;27;20431;-63
2023/03/05 10:07:07;;;;;;;6.95;1.30;;;5.80;99.90;;;;;;5119259;27;20076;-62
2023/03/05 10:09:55;;;;;;;7.68;1.50;;;5.80;99.90;;;;;;5138505;27;20408;-62
2023/03/05 10:12:45;;;;;;;5.63;1.10;;;5.80;99.90;;;;;;5126309;27;20454;-63
2023/03/05 10:15:21;;;;;;;10.57;1.70;;;5.90;99.90;;;;;;5114430;27;20379;-62
2023/03/05 10:18:06;;;;;;;3.30;1.23;;;5.90;99.90;;;;;;5141353;27;20404;-63
2023/03/05 10:21:07;;;;;;;6.35;1.30;;;6.00;99.90;;;;;;5124817;27;20133;-63
2023/03/05 10:23:45;;;;;;;7.03;1.70;;;6.10;99.90;;;;;;5116857;27;20413;-62
2023/03/05 10:26:29;;;;;;;7.85;1.65;;;6.00;99.90;;;;;;5134174;27;20039;-63
2023/03/05 10:29:10;;;;;;;5.40;1.30;;;6.00;99.90;;;;;;5127202;27;20374;-63
2023/03/05 10:31:52;;;;;;;9.05;1.60;;;6.10;99.90;;;;;;5144933;27;20035;-62
2023/03/05 10:34:35;;;;;;;7.82;1.45;;;6.00;99.90;;;;;;5131095;27;20030;-63
2023/03/05 10:37:28;;;;;;;6.72;1.27;;;6.00;99.90;;;;;;5135199;27;20088;-63
2023/03/05 10:39:57;;;;;;;7.88;1.33;;;6.00;99.90;;;;;;5132802;27;20521;-63
2023/03/05 10:42:57;;;;;;;7.53;1.67;;;6.10;99.90;;;;;;5122011;27;20039;-62
2023/03/05 10:45:29;;;;;;;4.15;1.30;;;6.10;99.90;;;;;;5125333;27;20035;-63
2023/03/05 10:48:00;;;;;;;;;;;6.10;99.90;;;;;;5140520;27;20039;-63
2023/03/05 10:50:41;;;;;;;10.13;1.17;;;6.20;99.90;;;;;;5128829;27;19922;-63
2023/03/05 10:53:47;;;;;;;6.05;1.02;;;6.30;99.90;;;;;;5128581;27;20032;-63
2023/03/05 10:56:14;;;;;;;4.63;1.27;;;6.50;99.90;;;;;;5140610;27;20373;-62
2023/03/05 10:58:40;;;;;;;8.63;1.30;;;6.60;99.90;;;;;;5139145;27;20114;-63
2023/03/05 11:01:11;;;;;;;8.00;1.00;;;6.70;99.90;;;;;;5127591;27;20438;-62
2023/03/05 11:03:55;;;;;;;6.97;1.40;;;6.70;99.90;;;;;;5125763;27;20088;-62
2023/03/05 11:06:32;;;;;;;7.10;1.27;;;6.80;99.90;;;;;;5134774;27;20079;-62
2023/03/05 11:09:22;;;;;;;5.10;1.40;;;6.90;99.90;;;;;;5133465;27;20046;-62
2023/03/05 11:12:01;;;;;;;7.38;1.30;;;7.00;99.90;;;;;;5143274;27;20047;-62
2023/03/05 11:14:30;;;;;;;5.25;1.30;;;7.00;99.90;;;;;;5129806;27;20133;-62
2023/03/05 11:16:56;;;;;;;6.72;1.20;;;7.10;99.90;;;;;;5138812;27;20054;-62
2023/03/05 11:19:31;;;;;;;4.00;1.20;;;7.20;99.90;;;;;;5142867;27;20499;-62
2023/03/05 11:22:21;;;;;;;5.68;1.17;;;7.20;99.90;;;;;;5131206;27;20034;-62
2023/03/05 11:25:11;;;;;;;7.30;1.00;;;7.20;99.90;;;;;;5120845;27;20040;-62
2023/03/05 11:27:43;;;;;;;5.30;1.60;;;6.70;99.90;;;;;;5130025;27;20057;-62
2023/03/05 11:30:23;;;;;;;3.25;1.10;;;7.50;99.90;;;;;;5118019;27;20386;-62
2023/03/05 11:32:49;;;;;;;3.70;0.90;;;7.60;99.90;;;;;;5123989;27;20038;-62
2023/03/05 11:35:42;;;;;;;7.35;1.60;;;7.60;99.90;;;;;;5126513;27;20447;-63
2023/03/05 11:38:20;;;;;;;5.78;1.00;;;7.50;99.90;;;;;;5133956;27;20139;-63
2023/03/05 11:40:47;;;;;;;5.32;1.13;;;7.40;99.90;;;;;;5116925;27;20036;-62
2023/03/05 11:43:18;;;;;;;5.75;1.08;;;7.50;99.90;;;;;;5136829;27;20030;-63
2023/03/05 11:45:46;;;;;;;4.70;1.00;;;7.30;99.90;;;;;;5123199;27;20063;-62
2023/03/05 11:48:25;;;;;;;2.85;0.90;;;7.40;99.90;;;;;;5110592;27;20474;-63
2023/03/05 11:50:55;;;;;;;3.80;0.90;;;7.40;99.90;;;;;;5132175;27;20050;-63
2023/03/05 11:53:29;;;;;;;3.67;0.80;;;7.50;99.90;;;;;;5121512;27;20038;-62
2023/03/05 11:55:57;;;;;;;3.75;1.05;;;7.70;99.90;;;;;;5111350;27;20043;-63
2023/03/05 11:59:13;;;;;;;3.45;0.85;;;7.70;99.90;;;;;;5116725;27;20044;-62
2023/03/05 12:01:51;;;;;;;3.22;1.00;;;7.90;99.90;;;;;;5100758;28;20048;-62
2023/03/05 12:04:18;;;;;;;7.07;3.83;;;7.90;99.90;;;;;;5099364;28;20061;-62
2023/03/05 12:06:49;;;;;;;7.78;4.22;;;8.10;99.90;;;;;;5113086;27;20054;-63
2023/03/05 12:09:15;;;;;;;10.50;7.68;;;8.10;99.90;;;;;;5126639;27;20402;-62
2023/03/05 12:11:41;;;;;;;7.03;5.05;;;8.00;99.90;;;;;;5126276;27;20043;-62
2023/03/05 12:14:36;;;;;;;5.10;2.50;;;7.90;99.90;;;;;;5119711;27;20055;-63
2023/03/05 12:17:27;;;;;;;7.05;2.10;;;7.80;99.90;;;;;;5120922;27;20047;-62
2023/03/05 12:20:06;;;;;;;3.25;1.50;;;7.60;99.90;;;;;;5125690;27;20521;-62
2023/03/05 12:22:42;;;;;;;6.28;2.10;;;7.50;99.90;;;;;;5119939;27;20063;-63
2023/03/05 12:25:32;;;;;;;6.75;2.60;;;7.40;99.90;;;;;;5122160;27;20031;-63
2023/03/05 12:27:58;;;;;;;8.77;4.85;;;7.30;99.90;;;;;;5135874;27;20054;-62
2023/03/05 12:30:46;;;;;;;5.93;4.10;;;7.20;99.90;;;;;;5136844;27;20496;-63
2023/03/05 12:33:31;;;;;;;11.82;6.40;;;7.30;99.90;;;;;;5129569;27;20554;-63
2023/03/05 12:36:21;;;;;;;8.98;3.67;;;7.40;99.90;;;;;;5121539;27;20036;-63
2023/03/05 12:38:54;;;;;;;8.85;4.53;;;7.40;99.90;;;;;;5134862;27;20075;-63
2023/03/05 12:41:23;;;;;;;9.27;5.78;;;7.50;99.90;;;;;;5137120;27;20035;-62
2023/03/05 12:44:04;;;;;;;5.65;2.40;;;7.50;99.90;;;;;;5129192;27;20035;-62
2023/03/05 12:46:35;;;;;;;11.38;1.73;;;7.50;99.90;;;;;;5121466;27;20520;-63
2023/03/05 12:49:19;;;;;;;6.63;1.23;;;7.50;99.90;;;;;;5132177;27;20084;-63
2023/03/05 12:51:47;;;;;;;6.30;1.27;;;7.40;99.90;;;;;;5134878;27;20041;-63
2023/03/05 12:54:38;;;;;;;5.13;1.00;;;7.40;99.90;;;;;;5117993;27;20430;-63
2023/03/05 12:57:20;;;;;;;5.63;1.30;;;7.40;99.90;;;;;;5108716;27;20027;-62
2023/03/05 12:59:53;;;;;;;6.53;1.20;;;7.50;99.90;;;;;;5115853;27;20211;-62
2023/03/05 13:02:39;;;;;;;5.30;1.17;;;7.70;99.90;;;;;;5119053;27;20746;-62
2023/03/05 13:05:20;;;;;;;6.97;1.35;;;7.90;99.90;;;;;;5130490;27;20039;-63
2023/03/05 13:07:47;;;;;;;9.95;1.70;;;7.90;99.90;;;;;;5125028;27;20027;-63
2023/03/05 13:10:26;;;;;;;5.40;1.88;;;7.90;99.90;;;;;;5124036;27;20062;-63